Wan Hai 501 — S6AS7 — position and weather

sailwx.info

Track history (hours):
 
Tides and Currents Weather Stations Pressure Air Temp Water Temp Dewpoint Dewpoint Depression Visibility Wind Speed Wind Dir Waves Ship Positions

Wan Hai 501

Last reported at 2017-Oct-08 16:19 UTC. Time now 2017-Oct-22 12:20 UTC.
Position N 01°10' E 103°41'.
Warning: this ship's position is 13 days out of date.

Length 269 m; draft 11.6 m.

Type: Cargo ship. MMSI: 563382000.

Date/timePositionNaut miles runAvg speedWind from/ knotsBaromVisibWave heightAir tempDewpointWater temp
2017-Oct-08 16:19N 01°10' E 103°41'11 5.6
2017-Oct-08 14:19N 01°16' E 103°50'0 0.0
2017-Oct-08 13:58N 01°16' E 103°50'0 0.0
2017-Oct-08 13:30N 01°16' E 103°50'0 0.0
2017-Oct-08 12:55N 01°16' E 103°50'0 0.0
2017-Oct-08 12:30N 01°16' E 103°50'0 0.0
2017-Oct-08 11:17N 01°16' E 103°50'0 0.0
2017-Oct-08 10:49N 01°16' E 103°50'3023.6
2017-Oct-08 09:34N 01°17' E 103°21'215.0
2017-Oct-08 09:26N 01°16' E 103°23'614.6
2017-Oct-08 08:59N 01°13' E 103°29'714.0
2017-Oct-08 08:30N 01°12' E 103°35'713.4
2017-Oct-08 08:00N 01°10' E 103°42'611.2
2017-Oct-08 07:30N 01°10' E 103°47'5 9.9
2017-Oct-08 06:59N 01°12' E 103°52'3 7.2
2017-Oct-08 06:31N 01°15' E 103°51'1 1.3
2017-Oct-08 06:00N 01°16' E 103°50'0 0.0
2017-Oct-08 05:31N 01°16' E 103°50'0 0.0
2017-Oct-08 05:00N 01°16' E 103°50'0 0.0
2017-Oct-08 04:29N 01°16' E 103°50'0 0.0
2017-Oct-08 03:59N 01°16' E 103°50'0 0.0
2017-Oct-08 03:27N 01°16' E 103°50'0 0.0
2017-Oct-08 02:56N 01°16' E 103°50'0 0.0
2017-Oct-08 02:26N 01°16' E 103°50'0 0.0
2017-Oct-08 01:59N 01°16' E 103°50'0 0.0
2017-Oct-08 01:29N 01°16' E 103°50'0 0.0
2017-Oct-08 00:59N 01°16' E 103°50'0 0.0
2017-Oct-08 00:26N 01°16' E 103°50'0 0.0
2017-Oct-07 23:59N 01°16' E 103°50'0 0.0
2017-Oct-07 23:29N 01°16' E 103°50'0 0.0
2017-Oct-07 22:59N 01°16' E 103°50'0 0.0
2017-Oct-07 22:29N 01°16' E 103°50'0 0.0
2017-Oct-07 21:59N 01°16' E 103°50'2 3.9
2017-Oct-07 21:27N 01°15' E 103°52'1 1.7
2017-Oct-07 21:00N 01°14' E 103°53'1 2.1
2017-Oct-07 20:30N 01°13' E 103°53'1 1.6
2017-Oct-07 20:00N 01°14' E 103°54'1 2.9
2017-Oct-07 19:30N 01°14' E 103°56'2 3.6
2017-Oct-07 19:00N 01°14' E 103°57'2 4.1
2017-Oct-07 18:30N 01°15' E 103°59'915.3
2017-Oct-07 17:56N 01°16' E 103°50'0 0.0
2017-Oct-07 17:29N 01°16' E 103°50'0 0.0
2017-Oct-07 16:56N 01°16' E 103°50'0 0.0
2017-Oct-07 16:29N 01°16' E 103°50'0 0.0
2017-Oct-07 15:53N 01°16' E 103°50'0 0.0
2017-Oct-07 15:26N 01°16' E 103°50'0 0.0
2017-Oct-07 14:59N 01°16' E 103°50'0 0.0
2017-Oct-07 14:29N 01°16' E 103°50'0 0.0
2017-Oct-07 13:59N 01°16' E 103°50'0 0.0
2017-Oct-07 13:29N 01°16' E 103°50'1 1.6
2017-Oct-07 13:00N 01°15' E 103°51'3 6.4
2017-Oct-07 12:30N 01°13' E 103°54'4 8.7
2017-Oct-07 12:01N 01°15' E 103°58'611.2
2017-Oct-07 11:30N 01°16' E 104°03'813.7
2017-Oct-07 10:55N 01°17' E 104°11'614.1
2017-Oct-07 10:28N 01°18' E 104°17'  
2017-Oct-04 07:31N 22°19' E 114°07'0 0.0
2017-Oct-03 15:51N 22°20' E 114°07'23612.4
2017-Oct-02 20:52N 23°40' E 118°08'614.1
2017-Oct-02 20:26N 23°43' E 118°14'2214.4
2017-Oct-02 18:56N 23°55' E 118°34'614.7
2017-Oct-02 18:30N 23°58' E 118°40'  
2017-Sep-29 14:30N 34°41' E 139°31'917.6
2017-Sep-29 14:00N 34°50' E 139°35'917.5
2017-Sep-29 13:30N 34°57' E 139°39'917.5
2017-Sep-29 13:00N 35°06' E 139°43'714.9
2017-Sep-29 12:30N 35°13' E 139°46'510.9
2017-Sep-29 12:00N 35°18' E 139°44'612.7
2017-Sep-29 11:30N 35°24' E 139°43'816.2
2017-Sep-29 11:00N 35°29' E 139°50'713.5
2017-Sep-29 10:30N 35°35' E 139°47'1 2.7
2017-Sep-29 10:00N 35°36' E 139°46'0 0.0
2017-Sep-29 09:28N 35°36' E 139°46'0 0.0
2017-Sep-29 08:55N 35°36' E 139°46'0 0.0
2017-Sep-29 08:28N 35°36' E 139°46'0 0.0
2017-Sep-29 07:58N 35°36' E 139°46'0 0.0
2017-Sep-29 07:28N 35°36' E 139°46'0 0.0
2017-Sep-29 06:55N 35°36' E 139°46'0 0.0
2017-Sep-29 06:25N 35°36' E 139°46'0 0.0
2017-Sep-29 05:58N 35°36' E 139°46'0 0.0
2017-Sep-29 05:28N 35°36' E 139°46'0 0.0
2017-Sep-29 04:58N 35°36' E 139°46'0 0.0
2017-Sep-29 04:28N 35°36' E 139°46'0 0.0
2017-Sep-29 03:55N 35°36' E 139°46'0 0.0
2017-Sep-29 03:28N 35°36' E 139°46'0 0.0
2017-Sep-29 02:58N 35°36' E 139°46'0 0.0
2017-Sep-29 02:28N 35°36' E 139°46'0 0.0
2017-Sep-29 01:58N 35°36' E 139°46'0 0.0
2017-Sep-29 01:28N 35°36' E 139°46'0 0.0
2017-Sep-29 00:58N 35°36' E 139°46'0 0.0
2017-Sep-29 00:28N 35°36' E 139°46'0 0.0
2017-Sep-28 23:55N 35°36' E 139°46'0 0.0
2017-Sep-28 23:28N 35°36' E 139°46'0 0.0
2017-Sep-28 22:58N 35°36' E 139°46'0 0.0
2017-Sep-28 22:28N 35°36' E 139°46'0 0.0
2017-Sep-28 21:58N 35°36' E 139°46'0 0.0
2017-Sep-28 21:28N 35°36' E 139°46'0 0.0
2017-Sep-28 20:49N 35°36' E 139°46'0 0.0
2017-Sep-28 20:28N 35°36' E 139°46'0 0.0
2017-Sep-28 19:55N 35°36' E 139°46'0 0.0
2017-Sep-28 19:28N 35°36' E 139°46'0 0.0
2017-Sep-28 18:58N 35°36' E 139°46'0 0.0
2017-Sep-28 18:28N 35°36' E 139°46'0 0.0
2017-Sep-28 17:58N 35°36' E 139°46'0 0.0
2017-Sep-28 17:25N 35°36' E 139°46'0 0.0
2017-Sep-28 16:55N 35°36' E 139°46'0 0.0
2017-Sep-28 16:28N 35°36' E 139°46'  
Track history (hours):
 
Tides and Currents Weather Stations Pressure Air Temp Water Temp Dewpoint Dewpoint Depression Visibility Wind Speed Wind Dir Waves Ship Positions

Wan Hai 501

Last reported at 2017-Oct-08 16:19 UTC. Time now 2017-Oct-22 12:20 UTC.
Position N 01°10' E 103°41'.
Warning: this ship's position is 13 days out of date.

Length 269 m; draft 11.6 m.

Type: Cargo ship. MMSI: 563382000.

Date/timePositionNaut miles runAvg speedWind from/ knotsBaromVisibWave heightAir tempDewpointWater temp
2017-Oct-08 16:19N 01°10' E 103°41'11 5.6
2017-Oct-08 14:19N 01°16' E 103°50'0 0.0
2017-Oct-08 13:58N 01°16' E 103°50'0 0.0
2017-Oct-08 13:30N 01°16' E 103°50'0 0.0
2017-Oct-08 12:55N 01°16' E 103°50'0 0.0
2017-Oct-08 12:30N 01°16' E 103°50'0 0.0
2017-Oct-08 11:17N 01°16' E 103°50'0 0.0
2017-Oct-08 10:49N 01°16' E 103°50'3023.6
2017-Oct-08 09:34N 01°17' E 103°21'215.0
2017-Oct-08 09:26N 01°16' E 103°23'614.6
2017-Oct-08 08:59N 01°13' E 103°29'714.0
2017-Oct-08 08:30N 01°12' E 103°35'713.4
2017-Oct-08 08:00N 01°10' E 103°42'611.2
2017-Oct-08 07:30N 01°10' E 103°47'5 9.9
2017-Oct-08 06:59N 01°12' E 103°52'3 7.2
2017-Oct-08 06:31N 01°15' E 103°51'1 1.3
2017-Oct-08 06:00N 01°16' E 103°50'0 0.0
2017-Oct-08 05:31N 01°16' E 103°50'0 0.0
2017-Oct-08 05:00N 01°16' E 103°50'0 0.0
2017-Oct-08 04:29N 01°16' E 103°50'0 0.0
2017-Oct-08 03:59N 01°16' E 103°50'0 0.0
2017-Oct-08 03:27N 01°16' E 103°50'0 0.0
2017-Oct-08 02:56N 01°16' E 103°50'0 0.0
2017-Oct-08 02:26N 01°16' E 103°50'0 0.0
2017-Oct-08 01:59N 01°16' E 103°50'0 0.0
2017-Oct-08 01:29N 01°16' E 103°50'0 0.0
2017-Oct-08 00:59N 01°16' E 103°50'0 0.0
2017-Oct-08 00:26N 01°16' E 103°50'0 0.0
2017-Oct-07 23:59N 01°16' E 103°50'0 0.0
2017-Oct-07 23:29N 01°16' E 103°50'0 0.0
2017-Oct-07 22:59N 01°16' E 103°50'0 0.0
2017-Oct-07 22:29N 01°16' E 103°50'0 0.0
2017-Oct-07 21:59N 01°16' E 103°50'2 3.9
2017-Oct-07 21:27N 01°15' E 103°52'1 1.7
2017-Oct-07 21:00N 01°14' E 103°53'1 2.1
2017-Oct-07 20:30N 01°13' E 103°53'1 1.6
2017-Oct-07 20:00N 01°14' E 103°54'1 2.9
2017-Oct-07 19:30N 01°14' E 103°56'2 3.6
2017-Oct-07 19:00N 01°14' E 103°57'2 4.1
2017-Oct-07 18:30N 01°15' E 103°59'915.3
2017-Oct-07 17:56N 01°16' E 103°50'0 0.0
2017-Oct-07 17:29N 01°16' E 103°50'0 0.0
2017-Oct-07 16:56N 01°16' E 103°50'0 0.0
2017-Oct-07 16:29N 01°16' E 103°50'0 0.0
2017-Oct-07 15:53N 01°16' E 103°50'0 0.0
2017-Oct-07 15:26N 01°16' E 103°50'0 0.0
2017-Oct-07 14:59N 01°16' E 103°50'0 0.0
2017-Oct-07 14:29N 01°16' E 103°50'0 0.0
2017-Oct-07 13:59N 01°16' E 103°50'0 0.0
2017-Oct-07 13:29N 01°16' E 103°50'1 1.6
2017-Oct-07 13:00N 01°15' E 103°51'3 6.4
2017-Oct-07 12:30N 01°13' E 103°54'4 8.7
2017-Oct-07 12:01N 01°15' E 103°58'611.2
2017-Oct-07 11:30N 01°16' E 104°03'813.7
2017-Oct-07 10:55N 01°17' E 104°11'614.1
2017-Oct-07 10:28N 01°18' E 104°17'  
2017-Oct-04 07:31N 22°19' E 114°07'0 0.0
2017-Oct-03 15:51N 22°20' E 114°07'23612.4
2017-Oct-02 20:52N 23°40' E 118°08'614.1
2017-Oct-02 20:26N 23°43' E 118°14'2214.4
2017-Oct-02 18:56N 23°55' E 118°34'614.7
2017-Oct-02 18:30N 23°58' E 118°40'  
2017-Sep-29 14:30N 34°41' E 139°31'917.6
2017-Sep-29 14:00N 34°50' E 139°35'917.5
2017-Sep-29 13:30N 34°57' E 139°39'917.5
2017-Sep-29 13:00N 35°06' E 139°43'714.9
2017-Sep-29 12:30N 35°13' E 139°46'510.9
2017-Sep-29 12:00N 35°18' E 139°44'612.7
2017-Sep-29 11:30N 35°24' E 139°43'816.2
2017-Sep-29 11:00N 35°29' E 139°50'713.5
2017-Sep-29 10:30N 35°35' E 139°47'1 2.7
2017-Sep-29 10:00N 35°36' E 139°46'0 0.0
2017-Sep-29 09:28N 35°36' E 139°46'0 0.0
2017-Sep-29 08:55N 35°36' E 139°46'0 0.0
2017-Sep-29 08:28N 35°36' E 139°46'0 0.0
2017-Sep-29 07:58N 35°36' E 139°46'0 0.0
2017-Sep-29 07:28N 35°36' E 139°46'0 0.0
2017-Sep-29 06:55N 35°36' E 139°46'0 0.0
2017-Sep-29 06:25N 35°36' E 139°46'0 0.0
2017-Sep-29 05:58N 35°36' E 139°46'0 0.0
2017-Sep-29 05:28N 35°36' E 139°46'0 0.0
2017-Sep-29 04:58N 35°36' E 139°46'0 0.0
2017-Sep-29 04:28N 35°36' E 139°46'0 0.0
2017-Sep-29 03:55N 35°36' E 139°46'0 0.0
2017-Sep-29 03:28N 35°36' E 139°46'0 0.0
2017-Sep-29 02:58N 35°36' E 139°46'0 0.0
2017-Sep-29 02:28N 35°36' E 139°46'0 0.0
2017-Sep-29 01:58N 35°36' E 139°46'0 0.0
2017-Sep-29 01:28N 35°36' E 139°46'0 0.0
2017-Sep-29 00:58N 35°36' E 139°46'0 0.0
2017-Sep-29 00:28N 35°36' E 139°46'0 0.0
2017-Sep-28 23:55N 35°36' E 139°46'0 0.0
2017-Sep-28 23:28N 35°36' E 139°46'0 0.0
2017-Sep-28 22:58N 35°36' E 139°46'0 0.0
2017-Sep-28 22:28N 35°36' E 139°46'0 0.0
2017-Sep-28 21:58N 35°36' E 139°46'0 0.0
2017-Sep-28 21:28N 35°36' E 139°46'0 0.0
2017-Sep-28 20:49N 35°36' E 139°46'0 0.0
2017-Sep-28 20:28N 35°36' E 139°46'0 0.0
2017-Sep-28 19:55N 35°36' E 139°46'0 0.0
2017-Sep-28 19:28N 35°36' E 139°46'0 0.0
2017-Sep-28 18:58N 35°36' E 139°46'0 0.0
2017-Sep-28 18:28N 35°36' E 139°46'0 0.0
2017-Sep-28 17:58N 35°36' E 139°46'0 0.0
2017-Sep-28 17:25N 35°36' E 139°46'0 0.0
2017-Sep-28 16:55N 35°36' E 139°46'0 0.0
2017-Sep-28 16:28N 35°36' E 139°46'  

Dump ship's entire track history